createdAt,value
2022-11-04T00:01:33.530Z,14.80
2022-11-04T00:04:05.578Z,14.80
2022-11-04T00:06:38.293Z,14.90
2022-11-04T00:09:15.469Z,14.90
2022-11-04T00:12:06.303Z,14.80
2022-11-04T00:14:38.502Z,14.70
2022-11-04T00:17:19.394Z,14.60
2022-11-04T00:20:11.904Z,14.50
2022-11-04T00:23:26.529Z,14.50
2022-11-04T00:26:16.882Z,14.60
2022-11-04T00:28:52.952Z,14.70
2022-11-04T00:31:57.317Z,14.70
2022-11-04T00:34:29.120Z,14.70
2022-11-04T00:37:03.047Z,14.60
2022-11-04T00:39:34.901Z,14.60
2022-11-04T00:42:07.068Z,14.60
2022-11-04T00:44:39.272Z,14.60
2022-11-04T00:47:11.135Z,14.60
2022-11-04T00:49:43.007Z,14.60
2022-11-04T00:52:14.823Z,14.60
2022-11-04T00:54:47.514Z,14.60
2022-11-04T00:57:19.445Z,14.60
2022-11-04T00:59:51.505Z,14.70
2022-11-04T01:02:23.574Z,14.70
2022-11-04T01:04:55.550Z,14.70
2022-11-04T01:07:27.462Z,14.70
2022-11-04T01:09:59.327Z,14.80
2022-11-04T01:12:31.286Z,14.80
2022-11-04T01:15:03.305Z,14.90
2022-11-04T01:17:35.209Z,14.90
2022-11-04T01:20:07.643Z,15.20
2022-11-04T01:22:39.508Z,15.40
2022-11-04T01:25:11.485Z,15.50
2022-11-04T01:27:43.324Z,15.50
2022-11-04T01:30:15.335Z,15.60
2022-11-04T01:32:47.212Z,15.60
2022-11-04T01:35:19.093Z,15.70
2022-11-04T01:37:51.004Z,15.80
2022-11-04T01:40:23.149Z,15.90
2022-11-04T01:42:55.106Z,15.80
2022-11-04T01:45:27.370Z,15.80
2022-11-04T01:48:06.905Z,15.90
2022-11-04T01:50:39.723Z,15.90
2022-11-04T01:53:37.754Z,15.80
2022-11-04T01:56:13.032Z,15.80
2022-11-04T01:58:51.215Z,15.80
2022-11-04T02:01:23.300Z,15.80
2022-11-04T02:04:19.133Z,15.90
2022-11-04T02:07:03.598Z,15.80
2022-11-04T02:09:37.394Z,15.80
2022-11-04T02:12:27.623Z,15.80
2022-11-04T02:14:59.625Z,15.80
2022-11-04T02:17:58.097Z,15.80
2022-11-04T02:20:36.574Z,15.80
2022-11-04T02:23:46.603Z,15.70
2022-11-04T02:26:55.850Z,15.70
2022-11-04T02:29:45.087Z,15.80
2022-11-04T02:32:20.821Z,15.80
2022-11-04T02:34:58.372Z,15.80
2022-11-04T02:37:33.305Z,15.80
2022-11-04T02:40:23.008Z,15.80
2022-11-04T02:43:12.884Z,15.80
2022-11-04T02:45:52.246Z,15.80
2022-11-04T02:48:46.818Z,15.80
2022-11-04T02:51:20.892Z,15.80
2022-11-04T02:53:59.006Z,15.90
2022-11-04T02:56:35.162Z,15.90
2022-11-04T02:59:16.034Z,15.90
2022-11-04T03:01:51.582Z,16.00
2022-11-04T03:04:30.389Z,16.00
2022-11-04T03:07:04.999Z,16.00
2022-11-04T03:09:42.214Z,16.00
2022-11-04T03:12:18.225Z,16.00
2022-11-04T03:14:55.078Z,16.10
2022-11-04T03:17:36.749Z,16.00
2022-11-04T03:20:18.211Z,16.00
2022-11-04T03:22:50.582Z,16.00
2022-11-04T03:25:27.786Z,16.00
2022-11-04T03:28:20.218Z,16.00
2022-11-04T03:30:55.745Z,15.90
2022-11-04T03:33:45.910Z,15.90
2022-11-04T03:36:19.238Z,15.80
2022-11-04T03:38:52.526Z,15.70
2022-11-04T03:41:42.118Z,15.70
2022-11-04T03:44:14.201Z,15.80
2022-11-04T03:46:46.681Z,15.80
2022-11-04T03:49:19.616Z,15.80
2022-11-04T03:51:52.283Z,15.90
2022-11-04T03:54:50.627Z,15.90
2022-11-04T03:57:25.341Z,16.00
2022-11-04T04:00:18.740Z,16.00
2022-11-04T04:03:02.130Z,16.00
2022-11-04T04:05:58.927Z,16.00
2022-11-04T04:08:36.940Z,16.00
2022-11-04T04:11:47.401Z,16.10
2022-11-04T04:14:41.292Z,16.10
2022-11-04T04:17:37.165Z,16.10
2022-11-04T04:20:20.505Z,16.00
2022-11-04T04:22:58.124Z,16.00
2022-11-04T04:25:50.040Z,16.00
2022-11-04T04:28:22.382Z,16.00
2022-11-04T04:31:00.033Z,16.00
2022-11-04T04:33:32.239Z,16.00
2022-11-04T04:36:07.965Z,15.80
2022-11-04T04:39:21.209Z,15.80
2022-11-04T04:42:13.803Z,15.80
2022-11-04T04:45:04.608Z,15.80
2022-11-04T04:47:45.372Z,15.80
2022-11-04T04:50:20.358Z,15.80
2022-11-04T04:52:54.612Z,15.80
2022-11-04T04:55:26.538Z,15.80
2022-11-04T04:57:58.930Z,15.80
2022-11-04T05:00:30.911Z,15.80
2022-11-04T05:03:02.817Z,15.80
2022-11-04T05:05:34.621Z,15.90
2022-11-04T05:08:08.179Z,15.90
2022-11-04T05:10:40.336Z,15.90
2022-11-04T05:13:29.987Z,15.80
2022-11-04T05:16:07.463Z,15.70
2022-11-04T05:18:39.348Z,15.70
2022-11-04T05:21:14.454Z,15.70
2022-11-04T05:23:46.300Z,15.70
2022-11-04T05:26:18.232Z,15.70
2022-11-04T05:28:50.140Z,15.70
2022-11-04T05:31:22.101Z,15.70
2022-11-04T05:33:54.048Z,15.60
2022-11-04T05:36:26.237Z,15.50
2022-11-04T05:38:58.139Z,15.50
2022-11-04T05:41:30.221Z,15.60
2022-11-04T05:44:04.273Z,15.60
2022-11-04T05:46:36.440Z,15.60
2022-11-04T05:49:09.335Z,15.70
2022-11-04T05:51:41.119Z,15.80
2022-11-04T05:54:12.973Z,15.80
2022-11-04T05:56:44.868Z,15.80
2022-11-04T05:59:16.678Z,15.80
2022-11-04T06:01:50.311Z,15.80
2022-11-04T06:04:22.385Z,15.80
2022-11-04T06:06:54.336Z,15.70
2022-11-04T06:09:39.148Z,15.70
2022-11-04T06:12:15.689Z,15.70
2022-11-04T06:14:47.915Z,15.70
2022-11-04T06:17:21.799Z,15.80
2022-11-04T06:19:53.794Z,15.70
2022-11-04T06:22:25.740Z,15.70
2022-11-04T06:24:57.632Z,15.70
2022-11-04T06:27:29.529Z,15.80
2022-11-04T06:30:01.536Z,15.80
2022-11-04T06:32:33.581Z,15.70
2022-11-04T06:35:06.036Z,15.80
2022-11-04T06:37:37.985Z,15.80
2022-11-04T06:40:10.523Z,15.80
2022-11-04T06:42:43.162Z,15.80
2022-11-04T06:45:15.148Z,15.70
2022-11-04T06:47:46.993Z,15.60
2022-11-04T06:50:18.786Z,15.60
2022-11-04T06:52:50.628Z,15.60
2022-11-04T06:55:22.452Z,15.50
2022-11-04T06:57:54.275Z,15.40
2022-11-04T07:00:26.666Z,15.40
2022-11-04T07:02:58.694Z,15.30
2022-11-04T07:05:33.422Z,15.20
2022-11-04T07:08:06.312Z,15.10
2022-11-04T07:10:38.425Z,15.10
2022-11-04T07:13:10.621Z,15.10
2022-11-04T07:15:42.429Z,15.10
2022-11-04T07:18:14.378Z,15.00
2022-11-04T07:20:46.321Z,14.90
2022-11-04T07:23:18.485Z,14.80
2022-11-04T07:25:50.681Z,14.70
2022-11-04T07:28:22.560Z,14.60
2022-11-04T07:31:01.807Z,14.60
2022-11-04T07:33:34.137Z,14.40
2022-11-04T07:36:08.178Z,14.30
2022-11-04T07:38:40.060Z,14.30
2022-11-04T07:41:12.829Z,14.30
2022-11-04T07:43:49.828Z,14.10
2022-11-04T07:46:21.946Z,13.90
2022-11-04T07:48:58.030Z,13.80
2022-11-04T07:51:32.326Z,13.80
2022-11-04T07:54:04.362Z,13.70
2022-11-04T07:56:36.166Z,13.80
2022-11-04T07:59:08.104Z,13.80
2022-11-04T08:01:40.276Z,13.80
2022-11-04T08:04:12.227Z,13.70
2022-11-04T08:06:44.136Z,13.80
2022-11-04T08:09:16.477Z,13.80
2022-11-04T08:11:48.421Z,14.00
2022-11-04T08:14:20.279Z,14.10
2022-11-04T08:16:52.344Z,14.10
2022-11-04T08:19:24.310Z,14.10
2022-11-04T08:21:56.085Z,14.10
2022-11-04T08:24:27.945Z,14.40
2022-11-04T08:26:59.794Z,15.10
2022-11-04T08:29:32.008Z,15.70
2022-11-04T08:32:04.064Z,16.30
2022-11-04T08:34:36.012Z,16.80
2022-11-04T08:37:07.992Z,17.30
2022-11-04T08:39:39.897Z,17.80
2022-11-04T08:42:11.781Z,18.10
2022-11-04T08:44:45.907Z,18.30
2022-11-04T08:47:18.158Z,18.50
2022-11-04T08:49:50.531Z,18.60
2022-11-04T08:52:22.404Z,18.20
2022-11-04T08:54:57.297Z,17.70
2022-11-04T08:57:31.299Z,17.60
2022-11-04T09:00:05.044Z,17.30
2022-11-04T09:02:37.344Z,16.90
2022-11-04T09:05:09.906Z,16.60
2022-11-04T09:07:43.001Z,16.60
2022-11-04T09:10:14.953Z,16.30
2022-11-04T09:12:46.935Z,16.00
2022-11-04T09:15:18.832Z,15.60
2022-11-04T09:17:51.955Z,15.70
2022-11-04T09:20:23.789Z,16.00
2022-11-04T09:22:58.828Z,16.10
2022-11-04T09:25:32.942Z,16.30
2022-11-04T09:28:05.110Z,16.20
2022-11-04T09:30:38.031Z,15.90
2022-11-04T09:33:10.402Z,15.30
2022-11-04T09:35:42.544Z,15.60
2022-11-04T09:38:14.380Z,15.90
2022-11-04T09:40:48.255Z,16.20
2022-11-04T09:43:41.792Z,16.40
2022-11-04T09:46:14.730Z,16.20
2022-11-04T09:48:51.588Z,16.10
2022-11-04T09:51:52.546Z,16.10
2022-11-04T09:54:21.894Z,16.40
2022-11-04T09:56:57.800Z,16.80
2022-11-04T09:59:32.953Z,17.10
2022-11-04T10:02:10.883Z,16.70
2022-11-04T10:05:09.030Z,16.70
2022-11-04T10:08:03.721Z,16.60
2022-11-04T10:11:05.606Z,16.60
2022-11-04T10:13:53.469Z,16.40
2022-11-04T10:16:40.839Z,16.30
2022-11-04T10:19:18.662Z,16.20
2022-11-04T10:22:17.949Z,16.20
2022-11-04T10:25:10.605Z,16.20
2022-11-04T10:27:46.252Z,16.20
2022-11-04T10:30:23.945Z,16.20
2022-11-04T10:33:29.126Z,16.30
2022-11-04T10:36:06.998Z,16.20
2022-11-04T10:38:48.617Z,16.20
2022-11-04T10:41:26.577Z,16.10
2022-11-04T10:44:04.284Z,16.10
2022-11-04T10:47:03.876Z,15.90
2022-11-04T10:50:13.932Z,15.80
2022-11-04T10:52:41.899Z,15.90
2022-11-04T10:55:38.580Z,15.80
2022-11-04T10:58:21.876Z,15.80
2022-11-04T11:00:54.770Z,15.90
2022-11-04T11:03:34.759Z,16.00
2022-11-04T11:06:24.550Z,16.10
2022-11-04T11:09:15.157Z,16.10
2022-11-04T11:11:51.692Z,16.30
2022-11-04T11:14:29.585Z,16.20
2022-11-04T11:17:23.868Z,16.20
2022-11-04T11:19:58.567Z,16.20
2022-11-04T11:22:34.921Z,16.30
2022-11-04T11:25:28.596Z,16.30
2022-11-04T11:28:06.205Z,16.40
2022-11-04T11:30:59.914Z,16.60
2022-11-04T11:33:34.772Z,16.60
2022-11-04T11:36:19.155Z,16.80
2022-11-04T11:39:14.086Z,16.90
2022-11-04T11:41:58.615Z,16.90
2022-11-04T11:44:47.570Z,17.00
2022-11-04T11:47:28.273Z,17.10
2022-11-04T11:50:19.305Z,17.10
2022-11-04T11:52:55.458Z,17.10
2022-11-04T11:55:34.137Z,17.10
2022-11-04T12:01:26.850Z,17.20
2022-11-04T12:10:51.399Z,17.10
2022-11-04T12:13:28.977Z,17.20
2022-11-04T12:16:21.116Z,17.10
2022-11-04T12:19:25.893Z,17.10
2022-11-04T12:22:08.447Z,17.00
2022-11-04T12:25:05.100Z,17.10
2022-11-04T12:27:52.429Z,17.20
2022-11-04T12:30:31.187Z,17.30
2022-11-04T12:33:32.190Z,17.40
2022-11-04T12:36:43.840Z,17.40
2022-11-04T12:39:34.905Z,17.50
2022-11-04T12:42:21.409Z,17.60
2022-11-04T12:45:22.513Z,17.60
2022-11-04T12:48:28.865Z,17.50
2022-11-04T12:51:44.981Z,17.50
2022-11-04T12:54:31.722Z,17.30
2022-11-04T12:57:22.253Z,17.20
2022-11-04T13:00:14.400Z,17.30
2022-11-04T13:02:56.633Z,17.20
2022-11-04T13:05:53.206Z,17.20
2022-11-04T13:08:43.088Z,17.20
2022-11-04T13:11:39.253Z,17.20
2022-11-04T13:14:21.575Z,17.10
2022-11-04T13:16:54.005Z,17.00
2022-11-04T13:19:31.257Z,17.00
2022-11-04T13:22:15.965Z,17.00
2022-11-04T13:25:03.523Z,17.10
2022-11-04T13:27:45.120Z,17.10
2022-11-04T13:30:30.697Z,17.10
2022-11-04T13:33:51.695Z,17.20
2022-11-04T13:37:08.952Z,17.10
2022-11-04T13:39:50.005Z,17.10
2022-11-04T13:42:40.890Z,17.10
2022-11-04T13:45:15.722Z,17.10
2022-11-04T13:47:57.890Z,17.20
2022-11-04T13:50:37.709Z,17.10
2022-11-04T13:53:11.512Z,17.10
2022-11-04T13:55:50.060Z,17.00
2022-11-04T13:58:27.058Z,17.00
2022-11-04T14:01:23.622Z,17.00
2022-11-04T14:04:19.890Z,17.10
2022-11-04T14:06:55.973Z,17.20
2022-11-04T14:09:42.903Z,17.20
2022-11-04T14:12:14.777Z,17.20
2022-11-04T14:14:55.433Z,17.20
2022-11-04T14:17:33.464Z,17.20
2022-11-04T14:20:06.144Z,17.20
2022-11-04T14:22:51.069Z,17.10
2022-11-04T14:25:36.850Z,17.10
2022-11-04T14:28:14.391Z,17.10
2022-11-04T14:30:58.101Z,17.10
2022-11-04T14:33:29.977Z,17.00
2022-11-04T14:36:27.558Z,16.90
2022-11-04T14:39:11.674Z,16.90
2022-11-04T14:41:49.959Z,16.80
2022-11-04T14:44:39.854Z,16.70
2022-11-04T14:47:29.675Z,16.60
2022-11-04T14:50:26.294Z,16.60
2022-11-04T14:53:03.716Z,16.50
2022-11-04T14:55:35.649Z,16.50
2022-11-04T14:58:29.674Z,16.50
2022-11-04T15:01:03.291Z,16.50
2022-11-04T15:06:40.617Z,16.50
2022-11-04T15:09:23.180Z,16.50
2022-11-04T15:12:25.203Z,16.60
2022-11-04T15:14:58.420Z,16.50
2022-11-04T15:17:33.461Z,16.50
2022-11-04T15:20:05.908Z,16.40
2022-11-04T15:22:46.137Z,16.40
2022-11-04T15:25:19.014Z,16.40
2022-11-04T15:27:51.154Z,16.30
2022-11-04T15:30:27.996Z,16.30
2022-11-04T15:33:03.064Z,16.20
2022-11-04T15:35:35.033Z,16.20
2022-11-04T15:38:06.995Z,16.20
2022-11-04T15:40:39.493Z,15.90
2022-11-04T15:43:12.134Z,15.70
2022-11-04T15:45:46.923Z,15.40
2022-11-04T15:48:38.007Z,15.20
2022-11-04T15:51:23.893Z,15.10
2022-11-04T15:53:57.974Z,15.10
2022-11-04T15:56:44.190Z,14.90
2022-11-04T15:59:18.970Z,14.80
2022-11-04T16:01:53.154Z,14.60
2022-11-04T16:04:27.808Z,14.50
2022-11-04T16:07:06.944Z,14.40
2022-11-04T16:09:50.698Z,14.40
2022-11-04T16:12:35.228Z,14.30
2022-11-04T16:15:27.351Z,14.40
2022-11-04T16:17:59.718Z,14.40
2022-11-04T16:20:32.420Z,14.30
2022-11-04T16:23:04.568Z,14.30
2022-11-04T16:25:36.557Z,14.30
2022-11-04T16:28:22.153Z,14.00
2022-11-04T16:31:02.392Z,13.90
2022-11-04T16:33:34.683Z,13.70
2022-11-04T16:36:14.055Z,13.50
2022-11-04T16:38:45.884Z,13.50
2022-11-04T16:41:17.851Z,13.40
2022-11-04T16:43:50.365Z,13.60
2022-11-04T16:46:22.970Z,13.70
2022-11-04T16:48:54.846Z,13.70
2022-11-04T16:51:26.772Z,13.70
2022-11-04T16:53:58.712Z,13.70
2022-11-04T16:56:30.771Z,13.70
2022-11-04T16:59:02.724Z,13.70
2022-11-04T17:01:34.831Z,13.60
2022-11-04T17:04:07.561Z,13.40
2022-11-04T17:06:39.904Z,13.10
2022-11-04T17:09:30.013Z,12.90
2022-11-04T17:12:01.808Z,12.80
2022-11-04T17:14:33.712Z,12.90
2022-11-04T17:17:06.218Z,12.80
2022-11-04T17:19:38.862Z,12.70
2022-11-04T17:22:11.720Z,12.50
2022-11-04T17:24:43.617Z,12.50
2022-11-04T17:27:15.608Z,12.50
2022-11-04T17:29:52.372Z,12.40
2022-11-04T17:32:24.722Z,12.30
2022-11-04T17:34:56.811Z,12.20
2022-11-04T17:37:28.729Z,12.10
2022-11-04T17:40:00.848Z,12.10
2022-11-04T17:42:51.273Z,12.20
2022-11-04T17:45:23.249Z,12.30
2022-11-04T17:47:55.152Z,12.30
2022-11-04T17:50:27.018Z,12.10
2022-11-04T17:52:59.276Z,12.10
2022-11-04T17:55:31.188Z,11.90
2022-11-04T17:58:03.166Z,12.00
2022-11-04T18:00:35.068Z,12.00
2022-11-04T18:03:08.820Z,12.00
2022-11-04T18:05:41.144Z,11.80
2022-11-04T18:08:13.147Z,11.60
2022-11-04T18:10:45.051Z,11.60
2022-11-04T18:13:16.925Z,11.70
2022-11-04T18:15:48.753Z,11.60
2022-11-04T18:18:21.511Z,11.60
2022-11-04T18:21:06.449Z,11.60
2022-11-04T18:23:38.437Z,11.70
2022-11-04T18:26:11.271Z,11.70
2022-11-04T18:28:43.105Z,11.70
2022-11-04T18:31:26.995Z,11.60
2022-11-04T18:34:00.865Z,11.50
2022-11-04T18:36:38.351Z,11.40
2022-11-04T18:39:13.754Z,11.30
2022-11-04T18:41:46.323Z,11.40
2022-11-04T18:44:20.464Z,11.30
2022-11-04T18:46:52.942Z,11.30
2022-11-04T18:49:24.871Z,11.30
2022-11-04T18:51:56.699Z,11.30
2022-11-04T18:54:28.722Z,11.40
2022-11-04T18:57:00.704Z,11.50
2022-11-04T18:59:32.852Z,11.60
2022-11-04T19:02:06.004Z,11.60
2022-11-04T19:04:38.023Z,11.60
2022-11-04T19:07:09.914Z,11.60
2022-11-04T19:09:47.049Z,11.70
2022-11-04T19:12:38.009Z,11.60
2022-11-04T19:15:10.382Z,11.60
2022-11-04T19:17:42.331Z,11.50
2022-11-04T19:20:17.355Z,11.60
2022-11-04T19:22:49.256Z,11.60
2022-11-04T19:25:21.105Z,11.70
2022-11-04T19:28:18.743Z,11.70
2022-11-04T19:30:45.638Z,11.80
2022-11-04T19:33:17.597Z,11.80
2022-11-04T19:35:52.602Z,11.80
2022-11-04T19:38:25.528Z,11.80
2022-11-04T19:41:33.897Z,11.90
2022-11-04T19:44:08.540Z,11.80
2022-11-04T19:46:40.562Z,11.80
2022-11-04T19:49:13.570Z,11.80
2022-11-04T19:51:45.577Z,11.80
2022-11-04T19:54:18.748Z,11.80
2022-11-04T19:56:50.681Z,11.80
2022-11-04T19:59:22.742Z,11.70
2022-11-04T20:01:54.810Z,11.70
2022-11-04T20:04:26.819Z,11.60
2022-11-04T20:06:58.964Z,11.60
2022-11-04T20:09:30.863Z,11.60
2022-11-04T20:12:21.425Z,11.50
2022-11-04T20:14:57.280Z,11.40
2022-11-04T20:17:31.548Z,11.40
2022-11-04T20:20:12.994Z,11.40
2022-11-04T20:22:44.857Z,11.50
2022-11-04T20:25:16.813Z,11.50
2022-11-04T20:27:49.025Z,11.40
2022-11-04T20:30:21.211Z,11.30
2022-11-04T20:32:53.238Z,11.10
2022-11-04T20:35:25.209Z,11.10
2022-11-04T20:37:57.161Z,11.00
2022-11-04T20:40:30.575Z,11.00
2022-11-04T20:43:05.408Z,11.00
2022-11-04T20:45:38.847Z,11.20
2022-11-04T20:48:12.693Z,11.30
2022-11-04T20:50:45.710Z,11.30
2022-11-04T20:53:17.853Z,11.30
2022-11-04T20:55:52.232Z,11.20
2022-11-04T20:58:24.631Z,10.90
2022-11-04T21:01:01.161Z,10.80
2022-11-04T21:03:33.270Z,10.70
2022-11-04T21:06:07.296Z,10.70
2022-11-04T21:08:39.770Z,10.70
2022-11-04T21:11:11.772Z,10.70
2022-11-04T21:13:43.730Z,10.80
2022-11-04T21:16:19.152Z,10.70
2022-11-04T21:18:51.083Z,10.70
2022-11-04T21:21:23.089Z,10.60
2022-11-04T21:24:02.859Z,10.60
2022-11-04T21:26:35.702Z,10.60
2022-11-04T21:29:11.592Z,10.70
2022-11-04T21:31:44.262Z,10.90
2022-11-04T21:34:16.261Z,10.90
2022-11-04T21:36:51.953Z,10.90
2022-11-04T21:39:23.966Z,10.90
2022-11-04T21:41:55.857Z,10.80
2022-11-04T21:44:27.842Z,10.70
2022-11-04T21:46:59.782Z,10.70
2022-11-04T21:49:31.751Z,10.70
2022-11-04T21:52:04.428Z,10.80
2022-11-04T21:54:36.457Z,10.90
2022-11-04T21:57:08.301Z,10.90
2022-11-04T21:59:40.858Z,10.90
2022-11-04T22:02:12.883Z,10.90
2022-11-04T22:04:44.932Z,10.90
2022-11-04T22:07:36.801Z,10.90
2022-11-04T22:10:08.954Z,10.90
2022-11-04T22:12:40.828Z,10.90
2022-11-04T22:15:12.904Z,11.00
2022-11-04T22:17:44.784Z,11.00
2022-11-04T22:20:16.932Z,10.90
2022-11-04T22:22:48.895Z,10.80
2022-11-04T22:25:20.866Z,10.80
2022-11-04T22:27:53.581Z,10.90
2022-11-04T22:30:25.669Z,11.00
2022-11-04T22:32:57.577Z,10.80
2022-11-04T22:35:30.677Z,10.60
2022-11-04T22:38:02.921Z,10.50
2022-11-04T22:40:35.038Z,10.40
2022-11-04T22:43:08.682Z,10.40
2022-11-04T22:45:40.857Z,10.40
2022-11-04T22:48:12.789Z,10.40
2022-11-04T22:50:45.722Z,10.50
2022-11-04T22:53:17.685Z,10.60
2022-11-04T22:55:50.203Z,10.60
2022-11-04T22:58:22.109Z,10.60
2022-11-04T23:01:02.943Z,10.60
2022-11-04T23:03:35.496Z,10.80
2022-11-04T23:06:08.401Z,10.80
2022-11-04T23:08:42.320Z,10.90
2022-11-04T23:11:37.120Z,10.70
2022-11-04T23:14:36.073Z,10.60
2022-11-04T23:17:43.475Z,10.50
2022-11-04T23:20:16.264Z,10.30
2022-11-04T23:23:07.234Z,10.20
2022-11-04T23:25:40.301Z,10.30
2022-11-04T23:28:30.827Z,10.30
2022-11-04T23:31:05.693Z,10.30
2022-11-04T23:33:56.465Z,10.20
2022-11-04T23:37:03.503Z,10.10
2022-11-04T23:39:35.412Z,10.10
2022-11-04T23:42:18.802Z,10.10
2022-11-04T23:45:15.236Z,10.00
2022-11-04T23:48:28.558Z,10.00
2022-11-04T23:51:20.975Z,10.00
2022-11-04T23:54:11.577Z,10.00
2022-11-04T23:57:02.090Z,10.00
2022-11-04T23:59:52.675Z,10.10
